Map

Track Data

SID SEASON NUMBER BASIN SUBBASIN NAME ISO_TIME NATURE LAT LON WMO_WIND WMO_PRES WMO_AGENCY TRACK_TYPE DIST2LAND LANDFALL IFLAG USA_AGENCY USA_ATCF_ID USA_LAT USA_LON USA_RECORD USA_STATUS USA_WIND USA_PRES USA_SSHS USA_R34_NE USA_R34_SE USA_R34_SW USA_R34_NW USA_R50_NE USA_R50_SE USA_R50_SW USA_R50_NW USA_R64_NE USA_R64_SE USA_R64_SW USA_R64_NW USA_POCI USA_ROCI USA_RMW USA_EYE TOKYO_LAT TOKYO_LON TOKYO_GRADE TOKYO_WIND TOKYO_PRES TOKYO_R50_DIR TOKYO_R50_LONG TOKYO_R50_SHORT TOKYO_R30_DIR TOKYO_R30_LONG TOKYO_R30_SHORT TOKYO_LAND CMA_LAT CMA_LON CMA_CAT CMA_WIND CMA_PRES HKO_LAT HKO_LON HKO_CAT HKO_WIND HKO_PRES NEWDELHI_LAT NEWDELHI_LON NEWDELHI_GRADE NEWDELHI_WIND NEWDELHI_PRES NEWDELHI_CI NEWDELHI_DP NEWDELHI_POCI REUNION_LAT REUNION_LON REUNION_TYPE REUNION_WIND REUNION_PRES REUNION_TNUM REUNION_CI REUNION_RMW REUNION_R34_NE REUNION_R34_SE REUNION_R34_SW REUNION_R34_NW REUNION_R50_NE REUNION_R50_SE REUNION_R50_SW REUNION_R50_NW REUNION_R64_NE REUNION_R64_SE REUNION_R64_SW REUNION_R64_NW BOM_LAT BOM_LON BOM_TYPE BOM_WIND BOM_PRES BOM_TNUM BOM_CI BOM_RMW BOM_R34_NE BOM_R34_SE BOM_R34_SW BOM_R34_NW BOM_R50_NE BOM_R50_SE BOM_R50_SW BOM_R50_NW BOM_R64_NE BOM_R64_SE BOM_R64_SW BOM_R64_NW BOM_ROCI BOM_POCI BOM_EYE BOM_POS_METHOD BOM_PRES_METHOD NADI_LAT NADI_LON NADI_CAT NADI_WIND NADI_PRES WELLINGTON_LAT WELLINGTON_LON WELLINGTON_WIND WELLINGTON_PRES DS824_LAT DS824_LON DS824_STAGE DS824_WIND DS824_PRES TD9636_LAT TD9636_LON TD9636_STAGE TD9636_WIND TD9636_PRES TD9635_LAT TD9635_LON TD9635_WIND TD9635_PRES TD9635_ROCI NEUMANN_LAT NEUMANN_LON NEUMANN_CLASS NEUMANN_WIND NEUMANN_PRES MLC_LAT MLC_LON MLC_CLASS MLC_WIND MLC_PRES USA_GUST BOM_GUST BOM_GUST_PER REUNION_GUST REUNION_GUST_PER USA_SEAHGT USA_SEARAD_NE USA_SEARAD_SE USA_SEARAD_SW USA_SEARAD_NW STORM_SPEED STORM_DIR
1845336N10074 1845 1 NI AS NOT_NAMED 1845-12-02 03:00:00 NR 10.0000 74.3000 main 196 196 __________O___ -1 10.0000 74.3000 7 3 283
1845336N10074 1845 1 NI AS NOT_NAMED 1845-12-02 06:00:00 NR 10.0329 74.1547 main 206 206 __________P___ -1 10.0329 74.1547 7 3 284
1845336N10074 1845 1 NI AS NOT_NAMED 1845-12-02 09:00:00 NR 10.0725 74.0075 main 222 222 __________P___ -1 10.0725 74.0075 7 3 288
1845336N10074 1845 1 NI AS NOT_NAMED 1845-12-02 12:00:00 NR 10.1260 73.8566 main 232 232 __________P___ -1 10.1260 73.8566 7 3 293
1845336N10074 1845 1 NI AS NOT_NAMED 1845-12-02 15:00:00 NR 10.2000 73.7000 main 249 249 __________O___ -1 10.2000 73.7000 7 4 299
1845336N10074 1845 1 NI AS NOT_NAMED 1845-12-02 18:00:00 NR 10.2993 73.5362 main 265 257 __________P___ -1 10.2993 73.5362 7 4 304
1845336N10074 1845 1 NI AS NOT_NAMED 1845-12-02 21:00:00 NR 10.4200 73.3650 main 265 265 __________P___ -1 10.4200 73.3650 7 4 307
1845336N10074 1845 1 NI AS NOT_NAMED 1845-12-03 00:00:00 NR 10.5556 73.1862 main 268 268 __________P___ -1 10.5556 73.1862 7 5 308
1845336N10074 1845 1 NI AS NOT_NAMED 1845-12-03 03:00:00 NR 10.7000 73.0000 main 280 280 __________O___ -1 10.7000 73.0000 7 5 306
1845336N10074 1845 1 NI AS NOT_NAMED 1845-12-03 06:00:00 NR 10.8429 72.7910 main 294 289 __________P___ -1 10.8429 72.7910 7 5 305
1845336N10074 1845 1 NI AS NOT_NAMED 1845-12-03 09:00:00 NR 10.9926 72.5776 main 303 303 __________P___ -1 10.9926 72.5776 7 5 307
1845336N10074 1845 1 NI AS NOT_NAMED 1845-12-03 12:00:00 NR 11.1460 72.3754 main 318 313 __________P___ -1 11.1460 72.3754 7 5 310
1845336N10074 1845 1 NI AS NOT_NAMED 1845-12-03 15:00:00 NR 11.3000 72.2000 main 327 327 __________O___ -1 11.3000 72.2000 7 4 314
1845336N10074 1845 1 NI AS NOT_NAMED 1845-12-03 18:00:00 NR 11.4459 72.0630 main 332 327 __________P___ -1 11.4459 72.0630 7 4 320
1845336N10074 1845 1 NI AS NOT_NAMED 1845-12-03 21:00:00 NR 11.5924 71.9549 main 332 332 __________P___ -1 11.5924 71.9549 7 4 328
1845336N10074 1845 1 NI AS NOT_NAMED 1845-12-04 00:00:00 NR 11.7428 71.8693 main 338 334 __________P___ -1 11.7428 71.8693 7 3 334
1845336N10074 1845 1 NI AS NOT_NAMED 1845-12-04 03:00:00 NR 11.9000 71.8000 main 341 338 __________O___ -1 11.9000 71.8000 7 4 338
1845336N10074 1845 1 NI AS NOT_NAMED 1845-12-04 06:00:00 NR 12.0678 71.7315 main 345 343 __________P___ -1 12.0678 71.7315 7 4 341
1845336N10074 1845 1 NI AS NOT_NAMED 1845-12-04 09:00:00 NR 12.2425 71.6775 main 343 341 __________P___ -1 12.2425 71.6775 7 4 344
1845336N10074 1845 1 NI AS NOT_NAMED 1845-12-04 12:00:00 NR 12.4209 71.6347 main 350 345 __________P___ -1 12.4209 71.6347 7 4 347
1845336N10074 1845 1 NI AS NOT_NAMED 1845-12-04 15:00:00 NR 12.6000 71.6000 main 345 340 __________O___ -1 12.6000 71.6000 7 4 351
1845336N10074 1845 1 NI AS NOT_NAMED 1845-12-04 18:00:00 NR 12.7772 71.5706 main 340 338 __________P___ -1 12.7772 71.5706 7 4 352
1845336N10074 1845 1 NI AS NOT_NAMED 1845-12-04 21:00:00 NR 12.9525 71.5450 main 345 339 __________P___ -1 12.9525 71.5450 7 4 353
1845336N10074 1845 1 NI AS NOT_NAMED 1845-12-05 00:00:00 NR 13.1266 71.5219 main 339 327 __________P___ -1 13.1266 71.5219 7 4 354
1845336N10074 1845 1 NI AS NOT_NAMED 1845-12-05 03:00:00 NR 13.3000 71.5000 main 327 __________O___ -1 13.3000 71.5000 7 4 0

About IBTrACS Database

This database is a web-friendly format of International Best Track Archive for Climate Stewardship (IBTrACS), a global best track data archive curated by NOAA dating back to 1842.

Updated: 2021-12-08